createdAt,value
2018-05-23T00:00:18.856Z,991.22
2018-05-23T00:01:39.868Z,991.23
2018-05-23T00:02:18.863Z,991.22
2018-05-23T00:03:18.851Z,991.26
2018-05-23T00:04:39.846Z,991.24
2018-05-23T00:05:18.838Z,991.22
2018-05-23T00:06:39.840Z,991.25
2018-05-23T00:07:18.832Z,991.22
2018-05-23T00:08:18.821Z,991.27
2018-05-23T00:09:39.828Z,991.26
2018-05-23T00:10:18.819Z,991.28
2018-05-23T00:11:39.817Z,991.28
2018-05-23T00:12:18.807Z,991.30
2018-05-23T00:13:18.803Z,991.31
2018-05-23T00:14:39.807Z,991.34
2018-05-23T00:15:18.795Z,991.32
2018-05-23T00:16:39.802Z,991.36
2018-05-23T00:17:18.780Z,991.36
2018-05-23T00:18:18.780Z,991.37
2018-05-23T00:19:39.781Z,991.35
2018-05-23T00:20:18.782Z,991.35
2018-05-23T00:21:39.770Z,991.36
2018-05-23T00:22:18.763Z,991.37
2018-05-23T00:23:18.757Z,991.35
2018-05-23T00:24:39.755Z,991.42
2018-05-23T00:25:18.747Z,991.42
2018-05-23T00:26:39.749Z,991.36
2018-05-23T00:27:18.738Z,991.39
2018-05-23T00:28:18.732Z,991.39
2018-05-23T00:29:39.733Z,991.43
2018-05-23T00:30:18.719Z,991.39
2018-05-23T00:31:39.720Z,991.34
2018-05-23T00:32:18.713Z,991.36
2018-05-23T00:33:18.705Z,991.35
2018-05-23T00:34:39.712Z,991.36
2018-05-23T00:35:18.696Z,991.37
2018-05-23T00:36:39.701Z,991.39
2018-05-23T00:37:18.687Z,991.38
2018-05-23T00:38:18.676Z,991.36
2018-05-23T00:39:39.687Z,991.39
2018-05-23T00:40:18.674Z,991.42
2018-05-23T00:41:39.679Z,991.39
2018-05-23T00:42:18.668Z,991.43
2018-05-23T00:43:18.657Z,991.41
2018-05-23T00:44:39.664Z,991.36
2018-05-23T00:45:18.654Z,991.38
2018-05-23T00:46:39.661Z,991.41
2018-05-23T00:47:18.637Z,991.36
2018-05-23T00:48:18.637Z,991.36
2018-05-23T00:49:39.639Z,991.39
2018-05-23T00:50:18.698Z,991.39
2018-05-23T00:51:39.628Z,991.33
2018-05-23T00:52:18.619Z,991.35
2018-05-23T00:53:18.611Z,991.34
2018-05-23T00:54:39.616Z,991.33
2018-05-23T00:55:18.604Z,991.35
2018-05-23T00:56:39.606Z,991.31
2018-05-23T00:57:18.594Z,991.29
2018-05-23T00:58:18.588Z,991.30
2018-05-23T00:59:39.591Z,991.26
2018-05-23T01:00:18.577Z,991.28
2018-05-23T01:01:39.579Z,991.27
2018-05-23T01:02:18.580Z,991.29
2018-05-23T01:03:18.567Z,991.33
2018-05-23T01:04:39.569Z,991.31
2018-05-23T01:05:18.560Z,991.30
2018-05-23T01:06:39.559Z,991.33
2018-05-23T01:07:18.545Z,991.33
2018-05-23T01:08:18.551Z,991.31
2018-05-23T01:09:39.554Z,991.32
2018-05-23T01:10:18.538Z,991.32
2018-05-23T01:11:39.533Z,991.29
2018-05-23T01:12:18.526Z,991.30
2018-05-23T01:13:18.518Z,991.29
2018-05-23T01:14:39.528Z,991.32
2018-05-23T01:15:18.512Z,991.32
2018-05-23T01:16:39.509Z,991.34
2018-05-23T01:17:18.500Z,991.30
2018-05-23T01:18:18.497Z,991.32
2018-05-23T01:19:39.496Z,991.29
2018-05-23T01:20:18.486Z,991.33
2018-05-23T01:21:39.486Z,991.30
2018-05-23T01:22:18.473Z,991.30
2018-05-23T01:23:18.471Z,991.32
2018-05-23T01:24:39.483Z,991.36
2018-05-23T01:25:18.467Z,991.34
2018-05-23T01:26:39.462Z,991.35
2018-05-23T01:27:18.452Z,991.36
2018-05-23T01:28:18.446Z,991.37
2018-05-23T01:29:39.450Z,991.34
2018-05-23T01:30:18.442Z,991.35
2018-05-23T01:31:39.443Z,991.41
2018-05-23T01:32:18.435Z,991.41
2018-05-23T01:33:18.415Z,991.41
2018-05-23T01:34:39.424Z,991.40
2018-05-23T01:35:18.415Z,991.39
2018-05-23T01:36:39.416Z,991.41
2018-05-23T01:37:18.408Z,991.43
2018-05-23T01:38:18.400Z,991.40
2018-05-23T01:39:39.403Z,991.37
2018-05-23T01:40:18.390Z,991.36
2018-05-23T01:41:39.395Z,991.41
2018-05-23T01:42:18.379Z,991.36
2018-05-23T01:43:18.381Z,991.35
2018-05-23T01:44:39.377Z,991.33
2018-05-23T01:45:18.368Z,991.32
2018-05-23T01:46:39.369Z,991.33
2018-05-23T01:47:18.360Z,991.33
2018-05-23T01:48:18.351Z,991.37
2018-05-23T01:49:39.358Z,991.35
2018-05-23T01:50:18.347Z,991.33
2018-05-23T01:51:39.348Z,991.36
2018-05-23T01:52:18.333Z,991.38
2018-05-23T01:53:18.332Z,991.39
2018-05-23T01:54:39.335Z,991.38
2018-05-23T01:55:18.327Z,991.40
2018-05-23T01:56:39.322Z,991.41
2018-05-23T01:57:18.308Z,991.41
2018-05-23T01:58:18.303Z,991.47
2018-05-23T01:59:39.311Z,991.45
2018-05-23T02:00:18.301Z,991.44
2018-05-23T02:01:39.295Z,991.48
2018-05-23T02:02:18.286Z,991.46
2018-05-23T02:03:18.284Z,991.41
2018-05-23T02:04:39.281Z,991.43
2018-05-23T02:05:18.275Z,991.45
2018-05-23T02:06:39.275Z,991.42
2018-05-23T02:07:18.263Z,991.41
2018-05-23T02:08:18.257Z,991.43
2018-05-23T02:09:39.262Z,991.43
2018-05-23T02:10:18.248Z,991.41
2018-05-23T02:11:39.252Z,991.47
2018-05-23T02:12:18.239Z,991.44
2018-05-23T02:13:18.237Z,991.44
2018-05-23T02:14:39.237Z,991.48
2018-05-23T02:15:18.219Z,991.46
2018-05-23T02:16:39.223Z,991.53
2018-05-23T02:17:18.215Z,991.53
2018-05-23T02:18:18.245Z,991.50
2018-05-23T02:19:39.207Z,991.53
2018-05-23T02:20:18.200Z,991.51
2018-05-23T02:21:39.201Z,991.52
2018-05-23T02:22:18.195Z,991.51
2018-05-23T02:23:18.189Z,991.52
2018-05-23T02:24:39.196Z,991.52
2018-05-23T02:25:18.178Z,991.52
2018-05-23T02:26:39.177Z,991.54
2018-05-23T02:27:18.163Z,991.54
2018-05-23T02:28:18.165Z,991.53
2018-05-23T02:29:39.159Z,991.51
2018-05-23T02:30:18.160Z,991.57
2018-05-23T02:31:39.159Z,991.57
2018-05-23T02:32:18.145Z,991.58
2018-05-23T02:33:18.142Z,991.57
2018-05-23T02:34:39.140Z,991.57
2018-05-23T02:35:18.129Z,991.56
2018-05-23T02:36:39.135Z,991.63
2018-05-23T02:37:18.118Z,991.58
2018-05-23T02:38:18.114Z,991.59
2018-05-23T02:39:39.127Z,991.55
2018-05-23T02:40:18.106Z,991.51
2018-05-23T02:41:39.111Z,991.51
2018-05-23T02:42:18.097Z,991.51
2018-05-23T02:43:18.092Z,991.51
2018-05-23T02:44:39.104Z,991.51
2018-05-23T02:45:18.079Z,991.56
2018-05-23T02:46:39.087Z,991.54
2018-05-23T02:47:18.073Z,991.56
2018-05-23T02:48:18.079Z,991.54
2018-05-23T02:49:39.074Z,991.55
2018-05-23T02:50:18.065Z,991.58
2018-05-23T02:51:39.091Z,991.58
2018-05-23T02:52:18.048Z,991.58
2018-05-23T02:53:18.079Z,991.50
2018-05-23T02:54:39.047Z,991.53
2018-05-23T02:55:18.052Z,991.55
2018-05-23T02:56:39.039Z,991.55
2018-05-23T02:57:18.036Z,991.55
2018-05-23T02:58:18.058Z,991.53
2018-05-23T02:59:39.024Z,991.58
2018-05-23T03:00:18.025Z,991.59
2018-05-23T03:01:39.019Z,991.58
2018-05-23T03:02:18.024Z,991.57
2018-05-23T03:03:18.024Z,991.59
2018-05-23T03:04:38.998Z,991.59
2018-05-23T03:05:18.001Z,991.60
2018-05-23T03:06:38.988Z,991.64
2018-05-23T03:07:17.993Z,991.64
2018-05-23T03:08:18.034Z,991.65
2018-05-23T03:09:38.978Z,991.70
2018-05-23T03:10:18.016Z,991.71
2018-05-23T03:11:38.967Z,991.71
2018-05-23T03:12:17.995Z,991.74
2018-05-23T03:13:17.997Z,991.73
2018-05-23T03:14:38.949Z,991.77
2018-05-23T03:15:18.012Z,991.73
2018-05-23T03:16:38.941Z,991.78
2018-05-23T03:17:17.973Z,991.79
2018-05-23T03:18:17.997Z,991.83
2018-05-23T03:19:38.925Z,991.82
2018-05-23T03:20:17.950Z,991.83
2018-05-23T03:21:38.915Z,991.80
2018-05-23T03:22:17.937Z,991.81
2018-05-23T03:23:17.941Z,991.79
2018-05-23T03:24:38.900Z,991.79
2018-05-23T03:25:17.941Z,991.77
2018-05-23T03:26:38.900Z,991.80
2018-05-23T03:27:17.924Z,991.80
2018-05-23T03:28:17.927Z,991.85
2018-05-23T03:29:38.881Z,991.87
2018-05-23T03:30:17.879Z,991.90
2018-05-23T03:31:38.867Z,991.92
2018-05-23T03:32:17.929Z,991.90
2018-05-23T03:33:17.903Z,991.93
2018-05-23T03:34:38.854Z,991.90
2018-05-23T03:35:17.885Z,991.89
2018-05-23T03:36:38.844Z,991.85
2018-05-23T03:37:17.843Z,991.84
2018-05-23T03:38:17.843Z,991.81
2018-05-23T03:39:38.833Z,991.84
2018-05-23T03:40:17.822Z,991.88
2018-05-23T03:41:38.817Z,991.89
2018-05-23T03:42:17.822Z,991.89
2018-05-23T03:43:17.835Z,991.92
2018-05-23T03:44:38.806Z,991.90
2018-05-23T03:45:17.795Z,991.94
2018-05-23T03:46:38.796Z,991.97
2018-05-23T03:47:17.784Z,991.93
2018-05-23T03:48:17.792Z,991.90
2018-05-23T03:49:38.778Z,991.94
2018-05-23T03:50:17.770Z,991.93
2018-05-23T03:51:38.787Z,991.95
2018-05-23T03:52:17.762Z,991.97
2018-05-23T03:53:17.758Z,991.97
2018-05-23T03:54:38.759Z,991.95
2018-05-23T03:55:17.815Z,991.95
2018-05-23T03:56:38.743Z,991.95
2018-05-23T03:57:17.734Z,992.00
2018-05-23T03:58:17.734Z,991.99
2018-05-23T03:59:38.737Z,992.02
2018-05-23T04:00:17.721Z,992.00
2018-05-23T04:01:38.728Z,992.05
2018-05-23T04:02:17.770Z,992.10
2018-05-23T04:03:17.700Z,992.05
2018-05-23T04:04:38.712Z,992.06
2018-05-23T04:05:17.696Z,992.09
2018-05-23T04:06:38.704Z,992.08
2018-05-23T04:07:17.688Z,992.10
2018-05-23T04:08:17.680Z,992.12
2018-05-23T04:09:38.776Z,992.14
2018-05-23T04:10:17.677Z,992.13
2018-05-23T04:11:38.676Z,992.11
2018-05-23T04:12:17.662Z,992.08
2018-05-23T04:13:17.659Z,992.11
2018-05-23T04:14:38.662Z,992.12
2018-05-23T04:15:17.751Z,992.08
2018-05-23T04:16:38.648Z,992.11
2018-05-23T04:17:17.639Z,992.11
2018-05-23T04:18:17.632Z,992.10
2018-05-23T04:19:38.663Z,992.14
2018-05-23T04:20:17.625Z,992.15
2018-05-23T04:21:38.631Z,992.17
2018-05-23T04:22:17.618Z,992.16
2018-05-23T04:23:17.607Z,992.16
2018-05-23T04:24:38.612Z,992.18
2018-05-23T04:25:17.666Z,992.14
2018-05-23T04:26:38.609Z,992.21
2018-05-23T04:27:17.593Z,992.19
2018-05-23T04:28:17.587Z,992.16
2018-05-23T04:29:38.589Z,992.17
2018-05-23T04:30:17.579Z,992.18
2018-05-23T04:31:38.581Z,992.14
2018-05-23T04:32:17.568Z,992.13
2018-05-23T04:33:17.564Z,992.15
2018-05-23T04:34:38.562Z,992.16
2018-05-23T04:35:17.553Z,992.16
2018-05-23T04:36:38.553Z,992.19
2018-05-23T04:37:17.544Z,992.21
2018-05-23T04:38:17.548Z,992.21
2018-05-23T04:39:38.537Z,992.18
2018-05-23T04:40:17.529Z,992.18
2018-05-23T04:41:38.530Z,992.18
2018-05-23T04:42:17.522Z,992.22
2018-05-23T04:43:17.508Z,992.18
2018-05-23T04:44:38.517Z,992.19
2018-05-23T04:45:17.504Z,992.21
2018-05-23T04:46:38.518Z,992.23
2018-05-23T04:47:17.497Z,992.25
2018-05-23T04:48:17.484Z,992.26
2018-05-23T04:49:38.491Z,992.28
2018-05-23T04:50:17.473Z,992.33
2018-05-23T04:51:38.488Z,992.25
2018-05-23T04:52:17.498Z,992.36
2018-05-23T04:53:17.466Z,992.33
2018-05-23T04:54:38.473Z,992.34
2018-05-23T04:55:17.456Z,992.34
2018-05-23T04:56:38.455Z,992.33
2018-05-23T04:57:17.445Z,992.38
2018-05-23T04:58:17.439Z,992.38
2018-05-23T04:59:38.440Z,992.39
2018-05-23T05:00:17.426Z,992.39
2018-05-23T05:01:38.434Z,992.41
2018-05-23T05:02:17.416Z,992.41
2018-05-23T05:03:17.417Z,992.44
2018-05-23T05:04:38.417Z,992.44
2018-05-23T05:05:17.408Z,992.44
2018-05-23T05:06:38.416Z,992.45
2018-05-23T05:07:17.400Z,992.46
2018-05-23T05:08:17.391Z,992.47
2018-05-23T05:09:38.391Z,992.54
2018-05-23T05:10:17.377Z,992.55
2018-05-23T05:11:38.385Z,992.54
2018-05-23T05:12:17.371Z,992.55
2018-05-23T05:13:17.364Z,992.54
2018-05-23T05:14:38.368Z,992.58
2018-05-23T05:15:17.358Z,992.62
2018-05-23T05:16:38.365Z,992.59
2018-05-23T05:17:17.349Z,992.64
2018-05-23T05:18:17.337Z,992.60
2018-05-23T05:19:38.346Z,992.59
2018-05-23T05:20:17.333Z,992.62
2018-05-23T05:21:38.333Z,992.62
2018-05-23T05:22:17.323Z,992.66
2018-05-23T05:23:17.319Z,992.67
2018-05-23T05:24:38.323Z,992.68
2018-05-23T05:25:17.311Z,992.71
2018-05-23T05:26:38.321Z,992.73
2018-05-23T05:27:17.297Z,992.71
2018-05-23T05:28:17.298Z,992.69
2018-05-23T05:29:38.296Z,992.72
2018-05-23T05:30:17.284Z,992.78
2018-05-23T05:31:38.285Z,992.80
2018-05-23T05:32:17.297Z,992.76
2018-05-23T05:33:17.268Z,992.78
2018-05-23T05:34:38.271Z,992.75
2018-05-23T05:35:17.311Z,992.78
2018-05-23T05:36:38.266Z,992.78
2018-05-23T05:37:17.253Z,992.82
2018-05-23T05:38:17.248Z,992.78
2018-05-23T05:39:38.250Z,992.82
2018-05-23T05:40:17.232Z,992.83
2018-05-23T05:41:38.238Z,992.84
2018-05-23T05:42:17.223Z,992.83
2018-05-23T05:43:17.221Z,992.82
2018-05-23T05:44:38.223Z,992.83
2018-05-23T05:45:17.214Z,992.87
2018-05-23T05:46:38.217Z,992.83
2018-05-23T05:47:17.202Z,992.86
2018-05-23T05:48:17.208Z,992.88
2018-05-23T05:49:38.201Z,992.90
2018-05-23T05:50:17.193Z,992.91
2018-05-23T05:51:38.196Z,992.89
2018-05-23T05:52:17.175Z,992.90
2018-05-23T05:53:17.175Z,992.95
2018-05-23T05:54:38.180Z,992.94
2018-05-23T05:55:17.165Z,992.92
2018-05-23T05:56:38.161Z,992.93
2018-05-23T05:57:17.151Z,992.96
2018-05-23T05:58:17.146Z,992.96
2018-05-23T05:59:38.152Z,992.98
2018-05-23T06:00:17.140Z,992.96
2018-05-23T06:01:38.132Z,993.00
2018-05-23T06:02:17.123Z,992.98
2018-05-23T06:03:17.117Z,993.01
2018-05-23T06:04:38.132Z,993.02
2018-05-23T06:05:17.112Z,993.07
2018-05-23T06:06:38.123Z,993.03
2018-05-23T06:07:17.147Z,993.09
2018-05-23T06:08:17.096Z,993.08
2018-05-23T06:09:38.140Z,993.11
2018-05-23T06:10:17.090Z,993.05
2018-05-23T06:11:38.091Z,993.09
2018-05-23T06:12:17.080Z,993.10
2018-05-23T06:13:17.074Z,993.14
2018-05-23T06:14:38.082Z,993.10
2018-05-23T06:15:17.065Z,993.11
2018-05-23T06:16:38.068Z,993.13
2018-05-23T06:17:17.052Z,993.14
2018-05-23T06:18:17.045Z,993.12
2018-05-23T06:19:38.050Z,993.15
2018-05-23T06:20:17.040Z,993.14
2018-05-23T06:21:38.041Z,993.14
2018-05-23T06:22:17.039Z,993.17
2018-05-23T06:23:17.026Z,993.22
2018-05-23T06:24:38.026Z,993.19
2018-05-23T06:25:17.020Z,993.21
2018-05-23T06:26:38.017Z,993.20
2018-05-23T06:27:17.007Z,993.22
2018-05-23T06:28:17.002Z,993.24
2018-05-23T06:29:38.000Z,993.23
2018-05-23T06:30:17.050Z,993.21
2018-05-23T06:31:37.995Z,993.26
2018-05-23T06:32:16.976Z,993.25
2018-05-23T06:33:16.978Z,993.26
2018-05-23T06:34:37.981Z,993.28
2018-05-23T06:35:16.965Z,993.26
2018-05-23T06:36:37.962Z,993.34
2018-05-23T06:37:16.962Z,993.27
2018-05-23T06:38:16.955Z,993.28
2018-05-23T06:39:37.949Z,993.27
2018-05-23T06:40:16.940Z,993.32
2018-05-23T06:41:37.947Z,993.31
2018-05-23T06:42:16.932Z,993.31
2018-05-23T06:43:16.936Z,993.29
2018-05-23T06:44:37.928Z,993.29
2018-05-23T06:45:16.917Z,993.31
2018-05-23T06:46:37.926Z,993.30
2018-05-23T06:47:16.911Z,993.32
2018-05-23T06:48:16.903Z,993.35
2018-05-23T06:49:37.902Z,993.35
2018-05-23T06:50:16.893Z,993.34
2018-05-23T06:51:37.897Z,993.34
2018-05-23T06:52:16.915Z,993.36
2018-05-23T06:53:16.939Z,993.39
2018-05-23T06:54:37.882Z,993.40
2018-05-23T06:55:16.866Z,993.44
2018-05-23T06:56:37.867Z,993.44
2018-05-23T06:57:16.856Z,993.48
2018-05-23T06:58:16.855Z,993.50
2018-05-23T06:59:37.860Z,993.50
2018-05-23T07:00:16.839Z,993.49
2018-05-23T07:01:37.840Z,993.53
2018-05-23T07:02:16.834Z,993.49
2018-05-23T07:03:16.833Z,993.50
2018-05-23T07:04:37.833Z,993.54
2018-05-23T07:05:16.822Z,993.54
2018-05-23T07:06:37.824Z,993.52
2018-05-23T07:07:16.811Z,993.56
2018-05-23T07:08:16.805Z,993.53
2018-05-23T07:09:37.802Z,993.53
2018-05-23T07:10:16.793Z,993.59
2018-05-23T07:11:37.807Z,993.56
2018-05-23T07:12:16.780Z,993.56
2018-05-23T07:13:16.781Z,993.62
2018-05-23T07:14:37.783Z,993.61
2018-05-23T07:15:16.778Z,993.63
2018-05-23T07:16:37.768Z,993.61
2018-05-23T07:17:16.764Z,993.66
2018-05-23T07:18:16.763Z,993.65
2018-05-23T07:19:37.759Z,993.67
2018-05-23T07:20:16.743Z,993.65
2018-05-23T07:21:37.752Z,993.72
2018-05-23T07:22:16.734Z,993.74
2018-05-23T07:23:16.726Z,993.76
2018-05-23T07:24:37.736Z,993.75
2018-05-23T07:25:16.723Z,993.79
2018-05-23T07:26:37.725Z,993.79
2018-05-23T07:27:16.720Z,993.77
2018-05-23T07:28:16.705Z,993.77
2018-05-23T07:29:37.716Z,993.71
2018-05-23T07:30:16.697Z,993.71
2018-05-23T07:31:37.716Z,993.74
2018-05-23T07:32:16.695Z,993.73
2018-05-23T07:33:16.688Z,993.71
2018-05-23T07:34:37.686Z,993.78
2018-05-23T07:35:16.675Z,993.76
2018-05-23T07:36:37.700Z,993.81
2018-05-23T07:37:16.660Z,993.84
2018-05-23T07:38:16.669Z,993.79
2018-05-23T07:39:37.665Z,993.81
2018-05-23T07:40:16.648Z,993.83
2018-05-23T07:41:37.652Z,993.86
2018-05-23T07:42:16.637Z,993.87
2018-05-23T07:43:16.631Z,993.86
2018-05-23T07:44:37.632Z,993.90
2018-05-23T07:45:16.621Z,993.85
2018-05-23T07:46:37.623Z,993.90
2018-05-23T07:47:16.614Z,993.86
2018-05-23T07:48:16.605Z,993.86
2018-05-23T07:49:37.693Z,993.89
2018-05-23T07:50:16.599Z,993.85
2018-05-23T07:51:37.623Z,993.82
2018-05-23T07:52:16.589Z,993.84
2018-05-23T07:53:16.584Z,993.85
2018-05-23T07:54:37.584Z,993.84
2018-05-23T07:55:16.594Z,993.82
2018-05-23T07:56:37.694Z,993.86
2018-05-23T07:57:16.567Z,993.83
2018-05-23T07:58:16.564Z,993.85
2018-05-23T07:59:37.573Z,993.86
2018-05-23T08:00:16.550Z,993.90
2018-05-23T08:01:37.549Z,993.88
2018-05-23T08:02:16.545Z,993.89
2018-05-23T08:03:16.538Z,993.87
2018-05-23T08:04:37.553Z,993.85
2018-05-23T08:05:16.528Z,993.87
2018-05-23T08:06:37.530Z,993.88
2018-05-23T08:07:16.524Z,993.87
2018-05-23T08:08:16.509Z,993.89
2018-05-23T08:09:37.513Z,993.89
2018-05-23T08:10:16.504Z,993.88
2018-05-23T08:11:37.498Z,993.90
2018-05-23T08:12:16.536Z,993.85
2018-05-23T08:13:16.483Z,993.90
2018-05-23T08:14:37.491Z,993.84
2018-05-23T08:15:16.476Z,993.84
2018-05-23T08:16:37.476Z,993.88
2018-05-23T08:17:16.467Z,993.86
2018-05-23T08:18:16.467Z,993.90
2018-05-23T08:19:37.458Z,993.89
2018-05-23T08:20:16.449Z,993.92
2018-05-23T08:21:37.455Z,993.94
2018-05-23T08:22:16.442Z,993.98
2018-05-23T08:23:16.432Z,993.93
2018-05-23T08:24:37.433Z,993.99
2018-05-23T08:25:16.424Z,994.01
2018-05-23T08:26:37.424Z,994.00
2018-05-23T08:27:16.416Z,994.02
2018-05-23T08:28:16.407Z,993.97
2018-05-23T08:29:37.404Z,994.00
2018-05-23T08:30:16.389Z,994.07
2018-05-23T08:31:37.399Z,994.04
2018-05-23T08:32:16.378Z,994.05
2018-05-23T08:33:16.370Z,994.05
2018-05-23T08:34:37.383Z,994.08
2018-05-23T08:35:16.364Z,994.05
2018-05-23T08:36:37.363Z,994.07
2018-05-23T08:37:16.358Z,994.08
2018-05-23T08:38:16.350Z,994.07
2018-05-23T08:39:37.351Z,994.06
2018-05-23T08:40:16.334Z,994.03
2018-05-23T08:41:37.333Z,994.07
2018-05-23T08:42:16.328Z,994.08
2018-05-23T08:43:16.327Z,994.08
2018-05-23T08:44:37.316Z,994.07
2018-05-23T08:45:16.316Z,994.06
2018-05-23T08:46:37.306Z,994.08
2018-05-23T08:47:16.297Z,994.07
2018-05-23T08:48:16.290Z,994.09
2018-05-23T08:49:37.295Z,994.13
2018-05-23T08:50:16.278Z,994.13
2018-05-23T08:51:37.274Z,994.14
2018-05-23T08:52:16.271Z,994.16
2018-05-23T08:53:16.270Z,994.18
2018-05-23T08:54:37.267Z,994.16
2018-05-23T08:55:16.271Z,994.15
2018-05-23T08:56:37.250Z,994.18
2018-05-23T08:57:16.257Z,994.16
2018-05-23T08:58:16.233Z,994.22
2018-05-23T08:59:37.229Z,994.18
2018-05-23T09:00:16.216Z,994.20
2018-05-23T09:01:37.217Z,994.19
2018-05-23T09:02:16.214Z,994.19
2018-05-23T09:03:16.275Z,994.18
2018-05-23T09:04:37.206Z,994.22
2018-05-23T09:05:16.232Z,994.24
2018-05-23T09:06:37.193Z,994.25
2018-05-23T09:07:16.236Z,994.24
2018-05-23T09:08:16.169Z,994.20
2018-05-23T09:09:37.173Z,994.22
2018-05-23T09:10:16.190Z,994.22
2018-05-23T09:11:37.170Z,994.23
2018-05-23T09:12:16.196Z,994.24
2018-05-23T09:13:16.189Z,994.27
2018-05-23T09:14:37.150Z,994.28
2018-05-23T09:15:16.152Z,994.28
2018-05-23T09:16:37.133Z,994.30
2018-05-23T09:17:16.135Z,994.27
2018-05-23T09:18:16.124Z,994.32
2018-05-23T09:19:37.116Z,994.28
2018-05-23T09:20:16.108Z,994.32
2018-05-23T09:21:37.103Z,994.29
2018-05-23T09:22:16.091Z,994.28
2018-05-23T09:23:16.090Z,994.32
2018-05-23T09:24:37.090Z,994.33
2018-05-23T09:25:16.074Z,994.28
2018-05-23T09:26:37.077Z,994.31
2018-05-23T09:27:16.064Z,994.27
2018-05-23T09:28:16.063Z,994.27
2018-05-23T09:29:37.062Z,994.28
2018-05-23T09:30:16.051Z,994.30
2018-05-23T09:31:37.050Z,994.33
2018-05-23T09:32:16.107Z,994.30
2018-05-23T09:33:16.033Z,994.35
2018-05-23T09:34:37.030Z,994.34
2018-05-23T09:35:16.026Z,994.38
2018-05-23T09:36:37.021Z,994.36
2018-05-23T09:37:16.012Z,994.34
2018-05-23T09:38:16.006Z,994.35
2018-05-23T09:39:37.019Z,994.34
2018-05-23T09:40:15.990Z,994.38
2018-05-23T09:41:36.992Z,994.36
2018-05-23T09:42:15.992Z,994.34
2018-05-23T09:43:15.980Z,994.34
2018-05-23T09:44:37.139Z,994.33
2018-05-23T09:45:16.000Z,994.31
2018-05-23T09:46:36.971Z,994.33
2018-05-23T09:47:15.968Z,994.33
2018-05-23T09:48:15.953Z,994.35
2018-05-23T09:49:36.954Z,994.38
2018-05-23T09:50:15.943Z,994.39
2018-05-23T09:51:36.944Z,994.37
2018-05-23T09:52:15.934Z,994.39
2018-05-23T09:53:15.933Z,994.36
2018-05-23T09:54:36.932Z,994.38
2018-05-23T09:55:15.922Z,994.38
2018-05-23T09:56:36.930Z,994.36
2018-05-23T09:57:15.908Z,994.39
2018-05-23T09:58:15.907Z,994.39
2018-05-23T09:59:36.908Z,994.38
2018-05-23T10:00:15.893Z,994.36
2018-05-23T10:01:36.944Z,994.37
2018-05-23T10:02:15.882Z,994.38
2018-05-23T10:03:15.876Z,994.38
2018-05-23T10:04:36.877Z,994.38
2018-05-23T10:05:15.868Z,994.41
2018-05-23T10:06:36.867Z,994.35
2018-05-23T10:07:15.859Z,994.35
2018-05-23T10:08:15.852Z,994.29
2018-05-23T10:09:36.851Z,994.30
2018-05-23T10:10:15.844Z,994.31
2018-05-23T10:11:36.847Z,994.28
2018-05-23T10:12:15.840Z,994.28
2018-05-23T10:13:15.827Z,994.32
2018-05-23T10:14:36.830Z,994.30
2018-05-23T10:15:15.816Z,994.32
2018-05-23T10:16:36.816Z,994.31
2018-05-23T10:17:15.814Z,994.31
2018-05-23T10:18:15.795Z,994.31
2018-05-23T10:19:36.800Z,994.28
2018-05-23T10:20:15.793Z,994.29
2018-05-23T10:21:36.797Z,994.28
2018-05-23T10:22:15.786Z,994.25
2018-05-23T10:23:15.779Z,994.27
2018-05-23T10:24:36.782Z,994.25
2018-05-23T10:25:15.764Z,994.27
2018-05-23T10:26:36.772Z,994.24
2018-05-23T10:27:15.758Z,994.23
2018-05-23T10:28:15.750Z,994.20
2018-05-23T10:29:36.753Z,994.23
2018-05-23T10:30:15.744Z,994.26
2018-05-23T10:31:36.750Z,994.27
2018-05-23T10:32:15.729Z,994.24
2018-05-23T10:33:15.762Z,994.27
2018-05-23T10:34:36.730Z,994.25
2018-05-23T10:35:15.748Z,994.20
2018-05-23T10:36:36.728Z,994.21
2018-05-23T10:37:15.708Z,994.22
2018-05-23T10:38:15.704Z,994.24
2018-05-23T10:39:36.700Z,994.23
2018-05-23T10:40:15.692Z,994.22
2018-05-23T10:41:36.696Z,994.23
2018-05-23T10:42:15.683Z,994.20
2018-05-23T10:43:15.680Z,994.20
2018-05-23T10:44:36.675Z,994.18
2018-05-23T10:45:15.669Z,994.21
2018-05-23T10:46:36.668Z,994.18
2018-05-23T10:47:15.656Z,994.17
2018-05-23T10:48:15.654Z,994.15
2018-05-23T10:49:36.663Z,994.17
2018-05-23T10:50:15.649Z,994.13
2018-05-23T10:51:36.657Z,994.15
2018-05-23T10:52:15.636Z,994.19
2018-05-23T10:53:15.625Z,994.16
2018-05-23T10:54:36.644Z,994.13
2018-05-23T10:55:15.617Z,994.11
2018-05-23T10:56:36.656Z,994.14
2018-05-23T10:57:15.651Z,994.12
2018-05-23T10:58:15.601Z,994.11
2018-05-23T10:59:36.609Z,994.09
2018-05-23T11:00:15.652Z,994.12
2018-05-23T11:01:36.598Z,994.13
2018-05-23T11:02:15.592Z,994.10
2018-05-23T11:03:15.573Z,994.12
2018-05-23T11:04:36.585Z,994.11
2018-05-23T11:05:15.598Z,994.11
2018-05-23T11:06:36.572Z,994.15
2018-05-23T11:07:15.560Z,994.14
2018-05-23T11:08:15.556Z,994.11
2018-05-23T11:09:36.558Z,994.12
2018-05-23T11:10:15.542Z,994.11
2018-05-23T11:11:36.549Z,994.13
2018-05-23T11:12:15.536Z,994.14
2018-05-23T11:13:15.526Z,994.12
2018-05-23T11:14:36.537Z,994.16
2018-05-23T11:15:15.546Z,994.11
2018-05-23T11:16:36.528Z,994.10
2018-05-23T11:17:15.511Z,994.05
2018-05-23T11:18:15.505Z,994.09
2018-05-23T11:19:36.512Z,994.11
2018-05-23T11:20:15.492Z,994.06
2018-05-23T11:21:36.496Z,994.07
2018-05-23T11:22:15.503Z,994.06
2018-05-23T11:23:15.482Z,994.03
2018-05-23T11:24:36.484Z,994.01
2018-05-23T11:25:15.470Z,994.05
2018-05-23T11:26:36.486Z,994.00
2018-05-23T11:27:15.466Z,993.97
2018-05-23T11:28:15.462Z,994.00
2018-05-23T11:29:36.525Z,993.94
2018-05-23T11:30:15.446Z,993.94
2018-05-23T11:31:36.450Z,993.97
2018-05-23T11:32:15.439Z,993.97
2018-05-23T11:33:15.442Z,993.97
2018-05-23T11:34:36.434Z,993.95
2018-05-23T11:35:15.525Z,994.02
2018-05-23T11:36:36.424Z,993.96
2018-05-23T11:37:15.413Z,993.97
2018-05-23T11:38:15.407Z,993.93
2018-05-23T11:39:36.412Z,993.95
2018-05-23T11:40:15.397Z,993.92
2018-05-23T11:41:36.402Z,993.95
2018-05-23T11:42:15.389Z,993.92
2018-05-23T11:43:15.382Z,993.93
2018-05-23T11:44:36.389Z,993.91
2018-05-23T11:45:15.375Z,993.93
2018-05-23T11:46:36.391Z,993.90
2018-05-23T11:47:15.366Z,993.83
2018-05-23T11:48:15.360Z,993.81
2018-05-23T11:49:36.367Z,993.83
2018-05-23T11:50:15.354Z,993.85
2018-05-23T11:51:36.355Z,993.84
2018-05-23T11:52:15.347Z,993.86
2018-05-23T11:53:15.342Z,993.82
2018-05-23T11:54:36.385Z,993.82
2018-05-23T11:55:15.322Z,993.78
2018-05-23T11:56:36.325Z,993.81
2018-05-23T11:57:15.316Z,993.79
2018-05-23T11:58:15.311Z,993.85
2018-05-23T11:59:36.314Z,993.76
2018-05-23T12:00:15.297Z,993.80
2018-05-23T12:01:36.305Z,993.75
2018-05-23T12:02:15.291Z,993.77
2018-05-23T12:03:15.290Z,993.72
2018-05-23T12:04:36.288Z,993.72
2018-05-23T12:05:15.276Z,993.73
2018-05-23T12:06:36.278Z,993.71
2018-05-23T12:07:15.264Z,993.70
2018-05-23T12:08:15.262Z,993.72
2018-05-23T12:09:36.265Z,993.71
2018-05-23T12:10:15.306Z,993.66
2018-05-23T12:11:36.257Z,993.66
2018-05-23T12:12:15.241Z,993.62
2018-05-23T12:13:15.235Z,993.62
2018-05-23T12:14:36.243Z,993.61
2018-05-23T12:15:15.251Z,993.62
2018-05-23T12:16:36.229Z,993.64
2018-05-23T12:17:15.230Z,993.65
2018-05-23T12:18:15.215Z,993.61
2018-05-23T12:19:36.306Z,993.62
2018-05-23T12:20:15.205Z,993.63
2018-05-23T12:21:36.219Z,993.59
2018-05-23T12:22:15.197Z,993.63
2018-05-23T12:23:15.197Z,993.68
2018-05-23T12:24:36.194Z,993.54
2018-05-23T12:25:15.182Z,993.51
2018-05-23T12:26:36.180Z,993.52
2018-05-23T12:27:15.164Z,993.54
2018-05-23T12:28:15.169Z,993.49